sensor_id;sensor_type;location;lat;lon;timestamp;temperature;humidity
9209;DHT22;4639;48.862;9.188;2023-06-22T00:01:58;23.10;99.90
9209;DHT22;4639;48.862;9.188;2023-06-22T00:04:24;23.10;99.90
9209;DHT22;4639;48.862;9.188;2023-06-22T00:06:50;23.10;99.90
9209;DHT22;4639;48.862;9.188;2023-06-22T00:09:16;23.10;99.90
9209;DHT22;4639;48.862;9.188;2023-06-22T00:11:41;23.10;99.90
9209;DHT22;4639;48.862;9.188;2023-06-22T00:14:07;23.00;99.90
9209;DHT22;4639;48.862;9.188;2023-06-22T00:16:33;23.00;99.90
9209;DHT22;4639;48.862;9.188;2023-06-22T00:18:59;23.00;99.90
9209;DHT22;4639;48.862;9.188;2023-06-22T00:21:29;22.90;99.90
9209;DHT22;4639;48.862;9.188;2023-06-22T00:23:56;22.90;99.90
9209;DHT22;4639;48.862;9.188;2023-06-22T00:26:23;22.90;99.90
9209;DHT22;4639;48.862;9.188;2023-06-22T00:28:48;22.90;99.90
9209;DHT22;4639;48.862;9.188;2023-06-22T00:31:14;22.80;99.90
9209;DHT22;4639;48.862;9.188;2023-06-22T00:33:40;22.80;99.90
9209;DHT22;4639;48.862;9.188;2023-06-22T00:36:06;22.80;99.90
9209;DHT22;4639;48.862;9.188;2023-06-22T00:38:33;22.70;99.90
9209;DHT22;4639;48.862;9.188;2023-06-22T00:40:59;22.60;99.90
9209;DHT22;4639;48.862;9.188;2023-06-22T00:43:24;22.60;99.90
9209;DHT22;4639;48.862;9.188;2023-06-22T00:45:50;22.50;99.90
9209;DHT22;4639;48.862;9.188;2023-06-22T00:48:15;22.60;99.90
9209;DHT22;4639;48.862;9.188;2023-06-22T00:50:41;22.60;99.90
9209;DHT22;4639;48.862;9.188;2023-06-22T00:53:09;22.60;99.90
9209;DHT22;4639;48.862;9.188;2023-06-22T00:55:53;22.60;99.90
9209;DHT22;4639;48.862;9.188;2023-06-22T00:58:19;22.50;99.90
9209;DHT22;4639;48.862;9.188;2023-06-22T01:00:47;22.30;99.90
9209;DHT22;4639;48.862;9.188;2023-06-22T01:03:12;22.00;99.90
9209;DHT22;4639;48.862;9.188;2023-06-22T01:05:39;22.10;99.90
9209;DHT22;4639;48.862;9.188;2023-06-22T01:08:07;22.20;99.90
9209;DHT22;4639;48.862;9.188;2023-06-22T01:10:36;22.10;99.90
9209;DHT22;4639;48.862;9.188;2023-06-22T01:18:14;21.90;99.90
9209;DHT22;4639;48.862;9.188;2023-06-22T01:20:42;21.90;99.90
9209;DHT22;4639;48.862;9.188;2023-06-22T01:23:27;21.90;99.90
9209;DHT22;4639;48.862;9.188;2023-06-22T01:26:16;21.90;99.90
9209;DHT22;4639;48.862;9.188;2023-06-22T01:28:54;22.00;99.90
9209;DHT22;4639;48.862;9.188;2023-06-22T01:31:24;22.00;99.90
9209;DHT22;4639;48.862;9.188;2023-06-22T01:33:53;22.00;99.90
9209;DHT22;4639;48.862;9.188;2023-06-22T01:36:21;22.00;99.90
9209;DHT22;4639;48.862;9.188;2023-06-22T01:38:48;22.00;99.90
9209;DHT22;4639;48.862;9.188;2023-06-22T01:41:16;21.90;99.90
9209;DHT22;4639;48.862;9.188;2023-06-22T01:43:43;22.00;99.90
9209;DHT22;4639;48.862;9.188;2023-06-22T01:46:09;22.00;99.90
9209;DHT22;4639;48.862;9.188;2023-06-22T01:48:35;22.00;99.90
9209;DHT22;4639;48.862;9.188;2023-06-22T01:51:02;22.00;99.90
9209;DHT22;4639;48.862;9.188;2023-06-22T01:53:27;22.00;99.90
9209;DHT22;4639;48.862;9.188;2023-06-22T01:55:53;22.00;99.90
9209;DHT22;4639;48.862;9.188;2023-06-22T01:58:21;22.00;99.90
9209;DHT22;4639;48.862;9.188;2023-06-22T02:00:59;21.90;99.90
9209;DHT22;4639;48.862;9.188;2023-06-22T02:03:35;21.70;99.90
9209;DHT22;4639;48.862;9.188;2023-06-22T02:06:15;21.70;99.90
9209;DHT22;4639;48.862;9.188;2023-06-22T02:08:51;21.80;99.90
9209;DHT22;4639;48.862;9.188;2023-06-22T02:11:20;21.90;99.90
9209;DHT22;4639;48.862;9.188;2023-06-22T02:13:47;21.80;99.90
9209;DHT22;4639;48.862;9.188;2023-06-22T02:16:13;21.80;99.90
9209;DHT22;4639;48.862;9.188;2023-06-22T02:18:46;21.80;99.90
9209;DHT22;4639;48.862;9.188;2023-06-22T02:21:12;21.80;99.90
9209;DHT22;4639;48.862;9.188;2023-06-22T02:23:37;21.80;99.90
9209;DHT22;4639;48.862;9.188;2023-06-22T02:26:03;21.70;99.90
9209;DHT22;4639;48.862;9.188;2023-06-22T02:28:29;21.80;99.90
9209;DHT22;4639;48.862;9.188;2023-06-22T02:30:55;21.80;99.90
9209;DHT22;4639;48.862;9.188;2023-06-22T02:33:20;21.80;99.90
9209;DHT22;4639;48.862;9.188;2023-06-22T02:35:46;21.70;99.90
9209;DHT22;4639;48.862;9.188;2023-06-22T02:38:14;21.60;99.90
9209;DHT22;4639;48.862;9.188;2023-06-22T02:40:40;21.50;99.90
9209;DHT22;4639;48.862;9.188;2023-06-22T02:43:05;21.50;99.90
9209;DHT22;4639;48.862;9.188;2023-06-22T02:45:31;21.50;99.90
9209;DHT22;4639;48.862;9.188;2023-06-22T02:47:57;21.70;99.90
9209;DHT22;4639;48.862;9.188;2023-06-22T02:50:23;21.50;99.90
9209;DHT22;4639;48.862;9.188;2023-06-22T02:52:48;21.60;99.90
9209;DHT22;4639;48.862;9.188;2023-06-22T02:55:14;21.60;99.90
9209;DHT22;4639;48.862;9.188;2023-06-22T02:57:40;21.60;99.90
9209;DHT22;4639;48.862;9.188;2023-06-22T03:00:10;21.60;99.90
9209;DHT22;4639;48.862;9.188;2023-06-22T03:02:47;21.50;99.90
9209;DHT22;4639;48.862;9.188;2023-06-22T03:05:14;21.50;99.90
9209;DHT22;4639;48.862;9.188;2023-06-22T03:07:41;21.50;99.90
9209;DHT22;4639;48.862;9.188;2023-06-22T03:10:11;21.50;99.90
9209;DHT22;4639;48.862;9.188;2023-06-22T03:12:40;21.40;99.90
9209;DHT22;4639;48.862;9.188;2023-06-22T03:15:08;21.40;99.90
9209;DHT22;4639;48.862;9.188;2023-06-22T03:17:34;21.30;99.90
9209;DHT22;4639;48.862;9.188;2023-06-22T03:20:01;21.30;99.90
9209;DHT22;4639;48.862;9.188;2023-06-22T03:22:30;21.30;99.90
9209;DHT22;4639;48.862;9.188;2023-06-22T03:24:55;21.30;99.90
9209;DHT22;4639;48.862;9.188;2023-06-22T03:27:21;21.30;99.90
9209;DHT22;4639;48.862;9.188;2023-06-22T03:29:46;21.20;99.90
9209;DHT22;4639;48.862;9.188;2023-06-22T03:32:12;21.20;99.90
9209;DHT22;4639;48.862;9.188;2023-06-22T03:34:37;21.20;99.90
9209;DHT22;4639;48.862;9.188;2023-06-22T03:37:03;21.20;99.90
9209;DHT22;4639;48.862;9.188;2023-06-22T03:39:29;21.10;99.90
9209;DHT22;4639;48.862;9.188;2023-06-22T03:41:54;21.10;99.90
9209;DHT22;4639;48.862;9.188;2023-06-22T03:44:20;21.10;99.90
9209;DHT22;4639;48.862;9.188;2023-06-22T03:46:46;21.30;99.90
9209;DHT22;4639;48.862;9.188;2023-06-22T03:49:11;21.20;99.90
9209;DHT22;4639;48.862;9.188;2023-06-22T03:51:37;21.20;99.90
9209;DHT22;4639;48.862;9.188;2023-06-22T03:54:02;21.20;99.90
9209;DHT22;4639;48.862;9.188;2023-06-22T03:56:28;21.10;99.90
9209;DHT22;4639;48.862;9.188;2023-06-22T03:58:53;21.10;99.90
9209;DHT22;4639;48.862;9.188;2023-06-22T04:01:19;21.10;99.90
9209;DHT22;4639;48.862;9.188;2023-06-22T04:03:44;21.00;99.90
9209;DHT22;4639;48.862;9.188;2023-06-22T04:06:13;21.10;99.90
9209;DHT22;4639;48.862;9.188;2023-06-22T04:08:38;21.10;99.90
9209;DHT22;4639;48.862;9.188;2023-06-22T04:11:04;21.10;99.90
9209;DHT22;4639;48.862;9.188;2023-06-22T04:13:30;21.00;99.90
9209;DHT22;4639;48.862;9.188;2023-06-22T04:15:55;21.00;99.90
9209;DHT22;4639;48.862;9.188;2023-06-22T04:18:21;21.10;99.90
9209;DHT22;4639;48.862;9.188;2023-06-22T04:20:47;21.10;99.90
9209;DHT22;4639;48.862;9.188;2023-06-22T04:23:13;21.10;99.90
9209;DHT22;4639;48.862;9.188;2023-06-22T04:25:39;21.10;99.90
9209;DHT22;4639;48.862;9.188;2023-06-22T04:28:04;21.10;99.90
9209;DHT22;4639;48.862;9.188;2023-06-22T04:30:32;21.10;99.90
9209;DHT22;4639;48.862;9.188;2023-06-22T04:32:57;21.00;99.90
9209;DHT22;4639;48.862;9.188;2023-06-22T04:35:24;21.00;99.90
9209;DHT22;4639;48.862;9.188;2023-06-22T04:37:50;21.00;99.90
9209;DHT22;4639;48.862;9.188;2023-06-22T04:40:15;21.00;99.90
9209;DHT22;4639;48.862;9.188;2023-06-22T04:42:41;21.10;99.90
9209;DHT22;4639;48.862;9.188;2023-06-22T04:45:19;21.10;99.90
9209;DHT22;4639;48.862;9.188;2023-06-22T04:47:45;21.20;99.90
9209;DHT22;4639;48.862;9.188;2023-06-22T04:50:14;21.20;99.90
9209;DHT22;4639;48.862;9.188;2023-06-22T04:52:40;21.20;99.90
9209;DHT22;4639;48.862;9.188;2023-06-22T04:55:06;21.40;99.90
9209;DHT22;4639;48.862;9.188;2023-06-22T04:57:32;21.20;99.90
9209;DHT22;4639;48.862;9.188;2023-06-22T05:00:01;21.20;99.90
9209;DHT22;4639;48.862;9.188;2023-06-22T05:02:41;21.30;99.90
9209;DHT22;4639;48.862;9.188;2023-06-22T05:05:07;21.30;99.90
9209;DHT22;4639;48.862;9.188;2023-06-22T05:07:36;21.30;99.90
9209;DHT22;4639;48.862;9.188;2023-06-22T05:10:03;21.40;99.90
9209;DHT22;4639;48.862;9.188;2023-06-22T05:12:29;21.40;99.90
9209;DHT22;4639;48.862;9.188;2023-06-22T05:14:55;21.30;99.90
9209;DHT22;4639;48.862;9.188;2023-06-22T05:17:21;21.40;99.90
9209;DHT22;4639;48.862;9.188;2023-06-22T05:19:47;21.50;99.90
9209;DHT22;4639;48.862;9.188;2023-06-22T05:22:14;21.50;99.90
9209;DHT22;4639;48.862;9.188;2023-06-22T05:24:40;21.50;99.90
9209;DHT22;4639;48.862;9.188;2023-06-22T05:27:06;21.60;99.90
9209;DHT22;4639;48.862;9.188;2023-06-22T05:29:32;21.60;99.90
9209;DHT22;4639;48.862;9.188;2023-06-22T05:31:57;21.70;99.90
9209;DHT22;4639;48.862;9.188;2023-06-22T05:34:23;21.60;99.90
9209;DHT22;4639;48.862;9.188;2023-06-22T05:36:48;21.70;99.90
9209;DHT22;4639;48.862;9.188;2023-06-22T05:39:14;21.80;99.90
9209;DHT22;4639;48.862;9.188;2023-06-22T05:41:40;22.20;99.90
9209;DHT22;4639;48.862;9.188;2023-06-22T05:44:06;21.90;99.90
9209;DHT22;4639;48.862;9.188;2023-06-22T05:46:31;21.90;99.90
9209;DHT22;4639;48.862;9.188;2023-06-22T05:48:57;22.00;99.90
9209;DHT22;4639;48.862;9.188;2023-06-22T05:51:23;22.00;99.90
9209;DHT22;4639;48.862;9.188;2023-06-22T05:53:48;22.10;99.90
9209;DHT22;4639;48.862;9.188;2023-06-22T05:56:15;22.00;99.90
9209;DHT22;4639;48.862;9.188;2023-06-22T05:58:41;22.10;99.90
9209;DHT22;4639;48.862;9.188;2023-06-22T06:01:07;22.10;99.90
9209;DHT22;4639;48.862;9.188;2023-06-22T06:03:32;22.20;99.90
9209;DHT22;4639;48.862;9.188;2023-06-22T06:05:58;22.20;99.90
9209;DHT22;4639;48.862;9.188;2023-06-22T06:08:24;22.20;99.90
9209;DHT22;4639;48.862;9.188;2023-06-22T06:10:49;22.20;99.90
9209;DHT22;4639;48.862;9.188;2023-06-22T06:13:15;22.20;99.90
9209;DHT22;4639;48.862;9.188;2023-06-22T06:15:40;22.30;99.90
9209;DHT22;4639;48.862;9.188;2023-06-22T06:18:06;22.40;99.90
9209;DHT22;4639;48.862;9.188;2023-06-22T06:20:32;22.30;99.90
9209;DHT22;4639;48.862;9.188;2023-06-22T06:22:58;22.40;99.90
9209;DHT22;4639;48.862;9.188;2023-06-22T06:25:23;22.40;99.90
9209;DHT22;4639;48.862;9.188;2023-06-22T06:27:51;22.40;99.90
9209;DHT22;4639;48.862;9.188;2023-06-22T06:30:18;22.50;99.90
9209;DHT22;4639;48.862;9.188;2023-06-22T06:32:45;22.50;99.90
9209;DHT22;4639;48.862;9.188;2023-06-22T06:35:12;22.60;99.90
9209;DHT22;4639;48.862;9.188;2023-06-22T06:37:43;22.60;99.90
9209;DHT22;4639;48.862;9.188;2023-06-22T06:40:11;22.80;99.90
9209;DHT22;4639;48.862;9.188;2023-06-22T06:42:45;22.90;99.90
9209;DHT22;4639;48.862;9.188;2023-06-22T06:45:12;22.90;99.90
9209;DHT22;4639;48.862;9.188;2023-06-22T06:47:38;23.00;99.90
9209;DHT22;4639;48.862;9.188;2023-06-22T06:50:05;23.10;99.90
9209;DHT22;4639;48.862;9.188;2023-06-22T06:52:31;23.10;99.90
9209;DHT22;4639;48.862;9.188;2023-06-22T06:54:56;23.10;99.90
9209;DHT22;4639;48.862;9.188;2023-06-22T06:57:22;23.20;99.90
9209;DHT22;4639;48.862;9.188;2023-06-22T06:59:48;23.30;99.90
9209;DHT22;4639;48.862;9.188;2023-06-22T07:02:17;23.40;99.90
9209;DHT22;4639;48.862;9.188;2023-06-22T07:04:43;23.50;99.90
9209;DHT22;4639;48.862;9.188;2023-06-22T07:07:08;23.60;99.90
9209;DHT22;4639;48.862;9.188;2023-06-22T07:09:34;23.60;99.90
9209;DHT22;4639;48.862;9.188;2023-06-22T07:11:59;23.70;99.90
9209;DHT22;4639;48.862;9.188;2023-06-22T07:14:25;23.70;99.90
9209;DHT22;4639;48.862;9.188;2023-06-22T07:16:50;23.80;99.90
9209;DHT22;4639;48.862;9.188;2023-06-22T07:19:16;23.80;99.90
9209;DHT22;4639;48.862;9.188;2023-06-22T07:21:41;23.90;99.90
9209;DHT22;4639;48.862;9.188;2023-06-22T07:24:07;23.90;99.90
9209;DHT22;4639;48.862;9.188;2023-06-22T07:26:33;24.10;99.90
9209;DHT22;4639;48.862;9.188;2023-06-22T07:28:59;24.20;99.90
9209;DHT22;4639;48.862;9.188;2023-06-22T07:31:25;24.30;99.90
9209;DHT22;4639;48.862;9.188;2023-06-22T07:33:51;24.40;99.90
9209;DHT22;4639;48.862;9.188;2023-06-22T07:36:17;24.40;99.90
9209;DHT22;4639;48.862;9.188;2023-06-22T07:38:43;24.50;99.90
9209;DHT22;4639;48.862;9.188;2023-06-22T07:41:08;24.50;99.90
9209;DHT22;4639;48.862;9.188;2023-06-22T07:43:34;24.50;99.90
9209;DHT22;4639;48.862;9.188;2023-06-22T07:46:03;24.60;99.90
9209;DHT22;4639;48.862;9.188;2023-06-22T07:48:28;24.60;99.90
9209;DHT22;4639;48.862;9.188;2023-06-22T07:50:54;24.80;99.90
9209;DHT22;4639;48.862;9.188;2023-06-22T07:53:21;24.90;99.90
9209;DHT22;4639;48.862;9.188;2023-06-22T07:55:47;25.00;99.90
9209;DHT22;4639;48.862;9.188;2023-06-22T07:58:13;25.10;99.90
9209;DHT22;4639;48.862;9.188;2023-06-22T08:00:38;25.20;99.90
9209;DHT22;4639;48.862;9.188;2023-06-22T08:03:04;25.30;99.90
9209;DHT22;4639;48.862;9.188;2023-06-22T08:05:31;25.40;99.90
9209;DHT22;4639;48.862;9.188;2023-06-22T08:07:56;25.60;99.90
9209;DHT22;4639;48.862;9.188;2023-06-22T08:10:22;25.80;99.90
9209;DHT22;4639;48.862;9.188;2023-06-22T08:12:48;25.80;99.90
9209;DHT22;4639;48.862;9.188;2023-06-22T08:15:13;26.00;99.90
9209;DHT22;4639;48.862;9.188;2023-06-22T08:17:39;26.10;99.90
9209;DHT22;4639;48.862;9.188;2023-06-22T08:20:06;26.20;99.90
9209;DHT22;4639;48.862;9.188;2023-06-22T08:22:35;26.20;99.90
9209;DHT22;4639;48.862;9.188;2023-06-22T08:25:02;26.10;99.90
9209;DHT22;4639;48.862;9.188;2023-06-22T08:27:30;26.20;99.90
9209;DHT22;4639;48.862;9.188;2023-06-22T08:30:00;26.30;99.90
9209;DHT22;4639;48.862;9.188;2023-06-22T08:32:27;26.40;99.90
9209;DHT22;4639;48.862;9.188;2023-06-22T08:34:57;26.50;99.90
9209;DHT22;4639;48.862;9.188;2023-06-22T08:37:23;26.70;99.90
9209;DHT22;4639;48.862;9.188;2023-06-22T08:39:58;26.80;99.90
9209;DHT22;4639;48.862;9.188;2023-06-22T08:42:24;26.80;99.90
9209;DHT22;4639;48.862;9.188;2023-06-22T08:44:50;26.80;99.90
9209;DHT22;4639;48.862;9.188;2023-06-22T08:47:16;26.80;99.90
9209;DHT22;4639;48.862;9.188;2023-06-22T08:49:42;26.80;99.90
9209;DHT22;4639;48.862;9.188;2023-06-22T08:52:07;26.80;99.90
9209;DHT22;4639;48.862;9.188;2023-06-22T08:54:33;26.80;99.90
9209;DHT22;4639;48.862;9.188;2023-06-22T08:57:02;26.80;99.90
9209;DHT22;4639;48.862;9.188;2023-06-22T08:59:28;26.70;99.90
9209;DHT22;4639;48.862;9.188;2023-06-22T09:01:54;26.70;99.90
9209;DHT22;4639;48.862;9.188;2023-06-22T09:04:19;26.90;99.90
9209;DHT22;4639;48.862;9.188;2023-06-22T09:06:47;27.00;99.90
9209;DHT22;4639;48.862;9.188;2023-06-22T09:09:13;27.00;99.90
9209;DHT22;4639;48.862;9.188;2023-06-22T09:11:40;27.10;99.90
9209;DHT22;4639;48.862;9.188;2023-06-22T09:14:06;27.40;99.90
9209;DHT22;4639;48.862;9.188;2023-06-22T09:16:31;27.50;99.90
9209;DHT22;4639;48.862;9.188;2023-06-22T09:18:57;27.60;99.90
9209;DHT22;4639;48.862;9.188;2023-06-22T09:21:23;27.60;99.90
9209;DHT22;4639;48.862;9.188;2023-06-22T09:23:48;27.60;99.90
9209;DHT22;4639;48.862;9.188;2023-06-22T09:26:17;27.70;99.90
9209;DHT22;4639;48.862;9.188;2023-06-22T09:28:43;27.90;99.90
9209;DHT22;4639;48.862;9.188;2023-06-22T09:31:08;28.10;99.90
9209;DHT22;4639;48.862;9.188;2023-06-22T09:33:35;28.10;99.90
9209;DHT22;4639;48.862;9.188;2023-06-22T09:36:00;28.20;99.90
9209;DHT22;4639;48.862;9.188;2023-06-22T09:38:26;28.40;99.90
9209;DHT22;4639;48.862;9.188;2023-06-22T09:40:51;28.50;99.90
9209;DHT22;4639;48.862;9.188;2023-06-22T09:43:17;28.60;99.90
9209;DHT22;4639;48.862;9.188;2023-06-22T09:45:42;28.80;99.90
9209;DHT22;4639;48.862;9.188;2023-06-22T09:48:08;29.00;99.90
9209;DHT22;4639;48.862;9.188;2023-06-22T09:50:35;29.20;99.90
9209;DHT22;4639;48.862;9.188;2023-06-22T09:53:01;29.40;99.90
9209;DHT22;4639;48.862;9.188;2023-06-22T09:55:27;29.70;99.90
9209;DHT22;4639;48.862;9.188;2023-06-22T09:57:52;29.90;99.90
9209;DHT22;4639;48.862;9.188;2023-06-22T10:00:19;30.00;99.90
9209;DHT22;4639;48.862;9.188;2023-06-22T10:02:46;30.10;99.90
9209;DHT22;4639;48.862;9.188;2023-06-22T10:05:12;30.00;99.90
9209;DHT22;4639;48.862;9.188;2023-06-22T10:07:37;30.00;99.90
9209;DHT22;4639;48.862;9.188;2023-06-22T10:10:12;30.00;99.90
9209;DHT22;4639;48.862;9.188;2023-06-22T10:12:44;29.90;99.90
9209;DHT22;4639;48.862;9.188;2023-06-22T10:15:10;30.00;99.90
9209;DHT22;4639;48.862;9.188;2023-06-22T10:17:36;30.00;99.90
9209;DHT22;4639;48.862;9.188;2023-06-22T10:20:01;30.10;99.90
9209;DHT22;4639;48.862;9.188;2023-06-22T10:22:31;30.00;99.90
9209;DHT22;4639;48.862;9.188;2023-06-22T10:24:57;29.90;99.90
9209;DHT22;4639;48.862;9.188;2023-06-22T10:27:23;29.90;99.90
9209;DHT22;4639;48.862;9.188;2023-06-22T10:29:48;30.10;99.90
9209;DHT22;4639;48.862;9.188;2023-06-22T10:32:14;30.10;99.90
9209;DHT22;4639;48.862;9.188;2023-06-22T10:34:39;30.40;99.90
9209;DHT22;4639;48.862;9.188;2023-06-22T10:37:05;30.70;99.90
9209;DHT22;4639;48.862;9.188;2023-06-22T10:39:31;30.90;99.90
9209;DHT22;4639;48.862;9.188;2023-06-22T10:41:56;31.00;99.90
9209;DHT22;4639;48.862;9.188;2023-06-22T10:44:22;31.20;99.90
9209;DHT22;4639;48.862;9.188;2023-06-22T10:46:47;31.40;99.90
9209;DHT22;4639;48.862;9.188;2023-06-22T10:49:13;31.50;99.90
9209;DHT22;4639;48.862;9.188;2023-06-22T10:51:38;31.60;99.90
9209;DHT22;4639;48.862;9.188;2023-06-22T10:54:04;31.70;99.90
9209;DHT22;4639;48.862;9.188;2023-06-22T10:56:29;31.60;99.90
9209;DHT22;4639;48.862;9.188;2023-06-22T10:58:55;31.30;99.90
9209;DHT22;4639;48.862;9.188;2023-06-22T11:01:21;31.10;99.90
9209;DHT22;4639;48.862;9.188;2023-06-22T11:03:46;30.90;99.90
9209;DHT22;4639;48.862;9.188;2023-06-22T11:06:12;30.80;99.90
9209;DHT22;4639;48.862;9.188;2023-06-22T11:08:37;30.90;99.90
9209;DHT22;4639;48.862;9.188;2023-06-22T11:11:03;31.00;99.90
9209;DHT22;4639;48.862;9.188;2023-06-22T11:13:28;30.90;99.90
9209;DHT22;4639;48.862;9.188;2023-06-22T11:15:54;30.90;99.90
9209;DHT22;4639;48.862;9.188;2023-06-22T11:18:19;31.10;99.90
9209;DHT22;4639;48.862;9.188;2023-06-22T11:20:45;30.80;99.90
9209;DHT22;4639;48.862;9.188;2023-06-22T11:23:11;30.80;99.90
9209;DHT22;4639;48.862;9.188;2023-06-22T11:25:37;30.80;99.90
9209;DHT22;4639;48.862;9.188;2023-06-22T11:28:04;30.80;99.90
9209;DHT22;4639;48.862;9.188;2023-06-22T11:30:30;30.90;99.90
9209;DHT22;4639;48.862;9.188;2023-06-22T11:32:58;30.90;99.90
9209;DHT22;4639;48.862;9.188;2023-06-22T11:35:23;31.00;99.90
9209;DHT22;4639;48.862;9.188;2023-06-22T11:37:49;31.00;99.90
9209;DHT22;4639;48.862;9.188;2023-06-22T11:40:14;31.10;99.90
9209;DHT22;4639;48.862;9.188;2023-06-22T11:42:40;31.20;99.90
9209;DHT22;4639;48.862;9.188;2023-06-22T11:45:07;31.20;99.90
9209;DHT22;4639;48.862;9.188;2023-06-22T11:47:32;31.30;99.90
9209;DHT22;4639;48.862;9.188;2023-06-22T11:49:58;31.40;99.90
9209;DHT22;4639;48.862;9.188;2023-06-22T11:52:23;31.50;99.90
9209;DHT22;4639;48.862;9.188;2023-06-22T11:54:49;31.50;99.90
9209;DHT22;4639;48.862;9.188;2023-06-22T11:57:14;31.50;99.90
9209;DHT22;4639;48.862;9.188;2023-06-22T11:59:40;31.40;99.90
9209;DHT22;4639;48.862;9.188;2023-06-22T12:02:05;31.40;99.90
9209;DHT22;4639;48.862;9.188;2023-06-22T12:04:32;31.40;99.90
9209;DHT22;4639;48.862;9.188;2023-06-22T12:06:58;31.50;99.90
9209;DHT22;4639;48.862;9.188;2023-06-22T12:09:24;31.50;99.90
9209;DHT22;4639;48.862;9.188;2023-06-22T12:11:49;31.30;99.90
9209;DHT22;4639;48.862;9.188;2023-06-22T12:14:15;31.20;99.90
9209;DHT22;4639;48.862;9.188;2023-06-22T12:16:40;31.20;99.90
9209;DHT22;4639;48.862;9.188;2023-06-22T12:19:06;31.10;99.90
9209;DHT22;4639;48.862;9.188;2023-06-22T12:21:32;31.10;99.90
9209;DHT22;4639;48.862;9.188;2023-06-22T12:23:57;30.90;99.90
9209;DHT22;4639;48.862;9.188;2023-06-22T12:26:23;30.80;99.90
9209;DHT22;4639;48.862;9.188;2023-06-22T12:28:48;30.70;99.90
9209;DHT22;4639;48.862;9.188;2023-06-22T12:31:14;30.80;99.90
9209;DHT22;4639;48.862;9.188;2023-06-22T12:33:40;30.80;99.90
9209;DHT22;4639;48.862;9.188;2023-06-22T12:36:05;31.00;99.90
9209;DHT22;4639;48.862;9.188;2023-06-22T12:38:31;31.10;99.90
9209;DHT22;4639;48.862;9.188;2023-06-22T12:40:57;31.10;99.90
9209;DHT22;4639;48.862;9.188;2023-06-22T12:43:22;31.10;99.90
9209;DHT22;4639;48.862;9.188;2023-06-22T12:45:48;31.20;99.90
9209;DHT22;4639;48.862;9.188;2023-06-22T12:48:13;31.20;99.90
9209;DHT22;4639;48.862;9.188;2023-06-22T12:50:39;31.00;99.90
9209;DHT22;4639;48.862;9.188;2023-06-22T12:53:04;30.80;99.90
9209;DHT22;4639;48.862;9.188;2023-06-22T12:55:31;30.80;99.90
9209;DHT22;4639;48.862;9.188;2023-06-22T12:57:57;30.90;99.90
9209;DHT22;4639;48.862;9.188;2023-06-22T13:00:23;31.00;99.90
9209;DHT22;4639;48.862;9.188;2023-06-22T13:02:48;31.00;99.90
9209;DHT22;4639;48.862;9.188;2023-06-22T13:05:14;31.00;99.90
9209;DHT22;4639;48.862;9.188;2023-06-22T13:07:40;31.00;99.90
9209;DHT22;4639;48.862;9.188;2023-06-22T13:10:07;31.00;99.90
9209;DHT22;4639;48.862;9.188;2023-06-22T13:12:33;30.90;99.90
9209;DHT22;4639;48.862;9.188;2023-06-22T13:14:59;30.90;99.90
9209;DHT22;4639;48.862;9.188;2023-06-22T13:17:24;31.00;99.90
9209;DHT22;4639;48.862;9.188;2023-06-22T13:19:50;31.00;99.90
9209;DHT22;4639;48.862;9.188;2023-06-22T13:22:30;31.10;99.90
9209;DHT22;4639;48.862;9.188;2023-06-22T13:24:56;31.00;99.90
9209;DHT22;4639;48.862;9.188;2023-06-22T13:27:22;31.00;99.90
9209;DHT22;4639;48.862;9.188;2023-06-22T13:29:48;31.00;99.90
9209;DHT22;4639;48.862;9.188;2023-06-22T13:32:13;31.10;99.90
9209;DHT22;4639;48.862;9.188;2023-06-22T13:34:39;31.20;99.90
9209;DHT22;4639;48.862;9.188;2023-06-22T13:37:05;31.30;99.90
9209;DHT22;4639;48.862;9.188;2023-06-22T13:39:30;31.40;99.90
9209;DHT22;4639;48.862;9.188;2023-06-22T13:41:57;31.50;99.90
9209;DHT22;4639;48.862;9.188;2023-06-22T13:44:23;31.50;99.90
9209;DHT22;4639;48.862;9.188;2023-06-22T13:46:48;31.60;99.90
9209;DHT22;4639;48.862;9.188;2023-06-22T13:49:14;31.60;99.90
9209;DHT22;4639;48.862;9.188;2023-06-22T13:51:40;31.60;99.90
9209;DHT22;4639;48.862;9.188;2023-06-22T13:54:05;31.50;99.90
9209;DHT22;4639;48.862;9.188;2023-06-22T13:56:32;31.50;99.90
9209;DHT22;4639;48.862;9.188;2023-06-22T13:58:58;31.60;99.90
9209;DHT22;4639;48.862;9.188;2023-06-22T14:01:23;31.50;99.90
9209;DHT22;4639;48.862;9.188;2023-06-22T14:03:49;31.50;99.90
9209;DHT22;4639;48.862;9.188;2023-06-22T14:06:14;31.50;99.90
9209;DHT22;4639;48.862;9.188;2023-06-22T14:08:40;31.40;99.90
9209;DHT22;4639;48.862;9.188;2023-06-22T14:11:05;31.40;99.90
9209;DHT22;4639;48.862;9.188;2023-06-22T14:13:31;31.40;99.90
9209;DHT22;4639;48.862;9.188;2023-06-22T14:15:57;31.40;99.90
9209;DHT22;4639;48.862;9.188;2023-06-22T14:18:23;31.40;99.90
9209;DHT22;4639;48.862;9.188;2023-06-22T14:20:49;31.50;99.90
9209;DHT22;4639;48.862;9.188;2023-06-22T14:23:14;31.50;99.90
9209;DHT22;4639;48.862;9.188;2023-06-22T14:25:40;31.60;99.90
9209;DHT22;4639;48.862;9.188;2023-06-22T14:28:06;31.70;99.90
9209;DHT22;4639;48.862;9.188;2023-06-22T14:30:31;31.80;99.90
9209;DHT22;4639;48.862;9.188;2023-06-22T14:32:57;32.00;99.90
9209;DHT22;4639;48.862;9.188;2023-06-22T14:35:22;32.10;99.90
9209;DHT22;4639;48.862;9.188;2023-06-22T14:37:49;32.10;99.90
9209;DHT22;4639;48.862;9.188;2023-06-22T14:40:15;31.90;99.90
9209;DHT22;4639;48.862;9.188;2023-06-22T14:42:41;31.70;99.90
9209;DHT22;4639;48.862;9.188;2023-06-22T14:45:07;31.80;99.90
9209;DHT22;4639;48.862;9.188;2023-06-22T14:47:32;31.80;99.90
9209;DHT22;4639;48.862;9.188;2023-06-22T14:49:58;31.90;99.90
9209;DHT22;4639;48.862;9.188;2023-06-22T14:52:25;31.80;99.90
9209;DHT22;4639;48.862;9.188;2023-06-22T14:54:51;31.90;99.90
9209;DHT22;4639;48.862;9.188;2023-06-22T14:57:18;32.00;99.90
9209;DHT22;4639;48.862;9.188;2023-06-22T14:59:48;32.20;99.90
9209;DHT22;4639;48.862;9.188;2023-06-22T15:02:14;32.40;99.90
9209;DHT22;4639;48.862;9.188;2023-06-22T15:04:40;32.70;99.90
9209;DHT22;4639;48.862;9.188;2023-06-22T15:07:06;32.80;99.90
9209;DHT22;4639;48.862;9.188;2023-06-22T15:09:31;32.70;99.90
9209;DHT22;4639;48.862;9.188;2023-06-22T15:11:58;32.80;99.90
9209;DHT22;4639;48.862;9.188;2023-06-22T15:14:26;32.70;99.90
9209;DHT22;4639;48.862;9.188;2023-06-22T15:16:52;32.70;99.90
9209;DHT22;4639;48.862;9.188;2023-06-22T15:19:18;32.70;99.80
9209;DHT22;4639;48.862;9.188;2023-06-22T15:21:44;32.70;99.40
9209;DHT22;4639;48.862;9.188;2023-06-22T15:24:09;32.70;99.20
9209;DHT22;4639;48.862;9.188;2023-06-22T15:26:35;32.70;99.40
9209;DHT22;4639;48.862;9.188;2023-06-22T15:29:00;32.70;99.60
9209;DHT22;4639;48.862;9.188;2023-06-22T15:31:27;32.60;99.50
9209;DHT22;4639;48.862;9.188;2023-06-22T15:33:52;32.40;99.30
9209;DHT22;4639;48.862;9.188;2023-06-22T15:36:18;32.30;98.90
9209;DHT22;4639;48.862;9.188;2023-06-22T15:38:47;32.40;99.20
9209;DHT22;4639;48.862;9.188;2023-06-22T15:41:13;32.70;99.00
9209;DHT22;4639;48.862;9.188;2023-06-22T15:43:38;32.70;98.70
9209;DHT22;4639;48.862;9.188;2023-06-22T15:46:04;32.50;98.50
9209;DHT22;4639;48.862;9.188;2023-06-22T15:48:30;32.20;99.10
9209;DHT22;4639;48.862;9.188;2023-06-22T15:50:55;32.00;99.40
9209;DHT22;4639;48.862;9.188;2023-06-22T15:53:21;31.80;99.30
9209;DHT22;4639;48.862;9.188;2023-06-22T15:55:46;31.90;99.70
9209;DHT22;4639;48.862;9.188;2023-06-22T15:58:12;31.70;99.40
9209;DHT22;4639;48.862;9.188;2023-06-22T16:00:38;31.60;99.00
9209;DHT22;4639;48.862;9.188;2023-06-22T16:03:04;31.60;99.60